Time;durP1;ratioP1;P1;durP2;ratioP2;P2;SDS_P1;SDS_P2;PMS_P1;PMS_P2;Temp;Humidity;BMP_temperature;BMP_pressure;BME280_temperature;BME280_humidity;BME280_pressure;Samples;Min_cycle;Max_cycle;Signal;HPM_P1;HPM_P2
2022/03/31 00:01:27;;;;;;;7.93;5.95;;;;;;;6.15;62.97;100071.44;5098081;28;20040;-55
2022/03/31 00:03:52;;;;;;;6.78;5.72;;;;;;;6.14;62.88;100063.69;5092390;28;20500;-55
2022/03/31 00:06:18;;;;;;;8.30;6.38;;;;;;;6.13;62.83;100072.56;5104869;28;20035;-55
2022/03/31 00:08:43;;;;;;;8.50;5.93;;;;;;;6.12;63.42;100060.38;5101265;28;20063;-55
2022/03/31 00:11:08;;;;;;;9.80;6.10;;;;;;;6.09;63.02;100066.78;5096318;28;20031;-55
2022/03/31 00:13:34;;;;;;;8.40;6.28;;;;;;;6.07;63.70;100062.63;5115328;28;20034;-55
2022/03/31 00:16:00;;;;;;;9.40;5.75;;;;;;;6.08;63.04;100069.56;5114683;28;20058;-53
2022/03/31 00:18:27;;;;;;;9.52;6.45;;;;;;;5.91;64.20;100074.63;5111944;28;20034;-53
2022/03/31 00:24:15;;;;;;;9.38;6.63;;;;;;;5.67;65.47;100083.09;5102034;28;20042;-55
2022/03/31 00:26:40;;;;;;;8.88;6.50;;;;;;;5.61;65.60;100084.50;5105971;28;20050;-55
2022/03/31 00:29:07;;;;;;;8.50;6.38;;;;;;;5.57;65.73;100078.72;5114374;28;20505;-55
2022/03/31 00:31:33;;;;;;;10.18;6.95;;;;;;;5.48;66.74;100077.00;5115047;28;20020;-55
2022/03/31 00:33:58;;;;;;;9.00;6.88;;;;;;;5.47;65.88;100070.88;5110844;28;20028;-55
2022/03/31 00:36:23;;;;;;;11.55;7.25;;;;;;;5.56;66.05;100071.81;5106108;28;20398;-55
2022/03/31 00:41:38;;;;;;;10.02;7.32;;;;;;;5.64;65.95;100069.25;5114221;28;20084;-56
2022/03/31 00:44:05;;;;;;;10.15;7.25;;;;;;;5.59;65.65;100065.44;5111829;28;20028;-56
2022/03/31 00:46:30;;;;;;;10.95;7.78;;;;;;;5.61;65.44;100068.72;5105660;28;20024;-55
2022/03/31 00:48:56;;;;;;;14.68;7.90;;;;;;;5.62;65.96;100073.00;5113923;28;20033;-55
2022/03/31 00:51:21;;;;;;;10.40;7.57;;;;;;;5.53;66.48;100074.75;5113349;28;20027;-53
2022/03/31 00:53:46;;;;;;;13.15;7.95;;;;;;;5.56;66.52;100071.81;5111732;28;20540;-56
2022/03/31 00:56:12;;;;;;;13.02;7.95;;;;;;;5.56;66.59;100070.97;5110234;28;20038;-55
2022/03/31 00:58:38;;;;;;;11.73;8.35;;;;;;;5.62;66.28;100065.13;5108964;28;20024;-54
2022/03/31 01:01:04;;;;;;;14.63;9.32;;;;;;;5.68;66.50;100064.56;5108091;28;20111;-55
2022/03/31 01:03:29;;;;;;;14.05;9.13;;;;;;;5.67;66.57;100067.31;5112736;28;20493;-53
2022/03/31 01:05:55;;;;;;;13.02;9.23;;;;;;;5.64;66.86;100063.19;5105264;28;20153;-56
2022/03/31 01:08:21;;;;;;;12.90;8.95;;;;;;;5.60;67.32;100057.41;5098837;28;20047;-53
2022/03/31 01:10:49;;;;;;;13.98;9.10;;;;;;;5.59;66.43;100049.66;5094262;28;20035;-54
2022/03/31 01:13:14;;;;;;;13.95;9.35;;;;;;;5.54;66.94;100057.16;5114137;28;20023;-55
2022/03/31 01:15:40;;;;;;;14.95;8.98;;;;;;;5.55;67.31;100050.91;5101765;28;20439;-54
2022/03/31 01:18:05;;;;;;;13.30;8.32;;;;;;;5.60;67.86;100051.31;5100342;28;20119;-56
2022/03/31 01:20:33;;;;;;;15.20;9.13;;;;;;;5.56;67.98;100044.66;5103828;28;20035;-55
2022/03/31 01:23:00;;;;;;;13.25;8.93;;;;;;;5.51;67.97;100043.34;5108474;28;20493;-56
2022/03/31 01:25:26;;;;;;;15.60;9.35;;;;;;;5.52;68.36;100038.88;5102436;28;20032;-56
2022/03/31 01:27:51;;;;;;;12.32;8.68;;;;;;;5.60;67.14;100035.50;5101630;28;20034;-54
2022/03/31 01:30:19;;;;;;;12.27;8.32;;;;;;;5.46;67.35;100023.69;5111991;28;20127;-56
2022/03/31 01:32:45;;;;;;;11.57;8.15;;;;;;;5.52;67.74;100042.34;5107113;28;20038;-54
2022/03/31 01:35:12;;;;;;;14.00;9.10;;;;;;;5.52;68.30;100036.25;5106051;28;20031;-54
2022/03/31 01:37:38;;;;;;;13.82;9.20;;;;;;;5.47;68.09;100034.06;5101109;28;20052;-55
2022/03/31 01:40:04;;;;;;;16.20;9.73;;;;;;;5.41;67.47;100032.03;5105830;28;20550;-53
2022/03/31 01:42:30;;;;;;;15.70;9.85;;;;;;;5.40;67.59;100035.66;5107493;28;20061;-55
2022/03/31 01:44:56;;;;;;;15.50;10.05;;;;;;;5.34;69.08;100029.16;5109440;28;20043;-55
2022/03/31 01:47:22;;;;;;;15.80;9.90;;;;;;;5.36;68.25;100026.38;5110804;28;20031;-55
2022/03/31 01:49:48;;;;;;;16.25;10.15;;;;;;;5.32;69.10;100023.22;5106191;28;20475;-55
2022/03/31 01:52:13;;;;;;;16.55;10.32;;;;;;;5.28;69.09;100032.38;5102581;27;20028;-55
2022/03/31 01:54:39;;;;;;;16.77;10.65;;;;;;;5.24;69.90;100021.34;5103848;28;20030;-55
2022/03/31 01:57:04;;;;;;;17.67;10.65;;;;;;;5.20;69.93;100016.53;5111186;28;20054;-54
2022/03/31 01:59:34;;;;;;;17.60;10.98;;;;;;;5.18;69.54;100016.66;5103998;28;20076;-54
2022/03/31 02:02:01;;;;;;;16.92;10.52;;;;;;;5.14;70.24;100019.72;5105652;28;20130;-56
2022/03/31 02:04:26;;;;;;;18.92;11.70;;;;;;;5.02;70.04;100016.50;5104753;28;20106;-55
2022/03/31 02:06:51;;;;;;;24.17;11.90;;;;;;;5.14;70.41;100012.69;5109327;28;20095;-55
2022/03/31 02:09:17;;;;;;;18.70;11.85;;;;;;;4.98;71.68;100010.66;5110186;28;20039;-55
2022/03/31 02:11:45;;;;;;;20.02;11.93;;;;;;;5.05;71.66;100006.50;5109009;28;20055;-55
2022/03/31 02:14:12;;;;;;;19.15;11.95;;;;;;;5.02;71.58;99995.47;5105888;28;20023;-55
2022/03/31 02:16:37;;;;;;;18.88;12.20;;;;;;;4.91;71.87;100002.56;5100515;28;20374;-53
2022/03/31 02:19:03;;;;;;;20.23;12.38;;;;;;;4.87;72.55;100003.81;5104971;28;20020;-54
2022/03/31 02:21:28;;;;;;;22.05;13.15;;;;;;;4.83;71.96;100000.66;5104675;28;20096;-55
2022/03/31 02:23:54;;;;;;;20.02;12.85;;;;;;;4.79;72.51;99999.28;5112247;28;20026;-53
2022/03/31 02:26:19;;;;;;;20.08;12.57;;;;;;;4.78;72.95;99997.63;5107388;28;20043;-53
2022/03/31 02:28:45;;;;;;;19.27;11.70;;;;;;;4.77;73.14;99997.75;5107980;28;20110;-54
2022/03/31 02:31:10;;;;;;;16.50;10.38;;;;;;;4.76;73.23;100001.38;5100894;28;20020;-54
2022/03/31 02:33:36;;;;;;;17.27;10.77;;;;;;;4.68;74.18;100000.28;5112630;28;20031;-55
2022/03/31 02:36:02;;;;;;;15.80;10.90;;;;;;;4.55;74.36;99997.16;5111406;28;20702;-54
2022/03/31 02:38:27;;;;;;;20.50;11.27;;;;;;;4.52;74.23;99992.19;5108183;28;20094;-55
2022/03/31 02:40:52;;;;;;;17.15;11.38;;;;;;;4.48;74.53;99993.47;5109020;27;20031;-55
2022/03/31 02:43:17;;;;;;;17.73;11.20;;;;;;;4.40;76.04;99992.34;5105474;28;20024;-52
2022/03/31 02:45:43;;;;;;;16.27;9.87;;;;;;;4.13;78.13;99988.69;5105179;28;20118;-55
2022/03/31 02:48:08;;;;;;;15.63;10.17;;;;;;;3.93;80.06;99982.63;5111774;28;20459;-55
2022/03/31 02:50:33;;;;;;;17.08;10.65;;;;;;;3.73;81.93;99989.66;5111136;28;20106;-55
2022/03/31 02:56:03;;;;;;;18.15;10.88;;;;;;;3.70;82.11;99979.47;5067179;28;20044;-55
2022/03/31 02:58:29;;;;;;;16.37;11.10;;;;;;;3.66;82.37;99980.69;5049741;28;20048;-54
2022/03/31 03:00:55;;;;;;;20.13;11.83;;;;;;;3.62;82.99;99983.56;5070190;28;20050;-53
2022/03/31 03:03:20;;;;;;;17.90;11.53;;;;;;;3.56;83.20;99973.63;5098517;28;20035;-53
2022/03/31 03:05:46;;;;;;;14.70;10.20;;;;;;;3.42;83.64;99974.06;5111446;28;20083;-54
2022/03/31 03:08:15;;;;;;;15.43;9.87;;;;;;;3.42;83.62;99977.50;5100206;28;20105;-54
2022/03/31 03:10:41;;;;;;;12.63;9.13;;;;;;;3.28;84.34;99976.09;5105073;28;20034;-55
2022/03/31 03:13:07;;;;;;;10.67;8.50;;;;;;;3.04;84.57;99971.22;5106636;28;20027;-54
2022/03/31 03:15:33;;;;;;;11.07;8.50;;;;;;;2.88;86.03;99972.56;5111204;28;20511;-54
2022/03/31 03:17:58;;;;;;;11.40;8.47;;;;;;;2.88;85.79;99971.72;5104193;28;20114;-54
2022/03/31 03:20:24;;;;;;;11.93;8.40;;;;;;;2.87;85.74;99967.44;5112839;28;20043;-53
2022/03/31 03:22:51;;;;;;;10.13;8.03;;;;;;;2.88;86.12;99974.34;5102598;28;20061;-53
2022/03/31 03:25:18;;;;;;;12.17;8.60;;;;;;;2.74;86.80;99973.75;5106924;28;20085;-55
2022/03/31 03:27:45;;;;;;;10.00;7.73;;;;;;;3.00;85.89;99975.88;5112435;28;20030;-54
2022/03/31 03:30:11;;;;;;;8.80;7.20;;;;;;;2.86;85.74;99982.31;5106471;28;20028;-55
2022/03/31 03:32:37;;;;;;;10.10;7.50;;;;;;;2.76;86.35;99974.44;5096504;28;20625;-53
2022/03/31 03:35:07;;;;;;;7.07;5.57;;;;;;;2.89;85.71;99968.13;5104628;28;20106;-54
2022/03/31 03:37:33;;;;;;;6.20;5.60;;;;;;;2.93;83.88;99972.16;5107540;28;20043;-54
2022/03/31 03:40:02;;;;;;;7.03;5.47;;;;;;;2.77;85.51;99967.41;5093980;28;20032;-53
2022/03/31 03:42:27;;;;;;;5.83;5.00;;;;;;;3.12;83.75;99975.78;5092688;28;20024;-54
2022/03/31 03:44:53;;;;;;;6.33;5.00;;;;;;;2.47;85.47;99972.50;5097785;28;20402;-52
2022/03/31 03:47:18;;;;;;;5.30;4.80;;;;;;;2.53;84.63;99982.44;5106581;28;20024;-54
2022/03/31 03:49:43;;;;;;;5.90;5.30;;;;;;;2.26;85.94;99970.75;5102080;28;20107;-53
2022/03/31 03:52:08;;;;;;;5.80;5.10;;;;;;;2.20;86.16;99975.66;5104322;28;20035;-53
2022/03/31 03:54:34;;;;;;;5.50;4.67;;;;;;;2.13;86.38;99976.16;5100351;28;20043;-53
2022/03/31 03:56:59;;;;;;;5.67;4.80;;;;;;;2.14;86.94;99977.00;5094093;28;20181;-54
2022/03/31 03:59:24;;;;;;;6.20;5.20;;;;;;;2.01;86.99;99983.25;5108722;28;20036;-54
2022/03/31 04:01:50;;;;;;;6.57;5.10;;;;;;;2.02;87.67;99981.47;5101072;28;20470;-52
2022/03/31 04:04:15;;;;;;;6.30;5.30;;;;;;;1.92;87.88;99984.00;5106615;28;20654;-54
2022/03/31 04:06:41;;;;;;;7.73;5.23;;;;;;;2.21;86.71;99980.78;5105062;28;20050;-55
2022/03/31 04:09:06;;;;;;;8.53;6.03;;;;;;;1.97;87.47;99976.63;5104032;28;20043;-55
2022/03/31 04:11:31;;;;;;;6.70;5.60;;;;;;;1.96;88.09;99980.19;5105520;28;20108;-54
2022/03/31 04:13:57;;;;;;;6.33;5.20;;;;;;;2.34;85.94;99983.19;5101128;28;20043;-54
2022/03/31 04:16:22;;;;;;;6.17;5.30;;;;;;;2.03;88.28;99979.69;5102285;28;20047;-54
2022/03/31 04:18:47;;;;;;;6.63;5.67;;;;;;;1.87;89.46;99975.72;5100148;28;20055;-53
2022/03/31 04:21:14;;;;;;;7.23;5.73;;;;;;;1.83;89.14;99974.31;5107960;28;20465;-55
2022/03/31 04:23:40;;;;;;;7.97;5.50;;;;;;;1.73;88.62;99975.06;5103234;28;20034;-57
2022/03/31 04:26:05;;;;;;;6.10;5.40;;;;;;;1.56;89.48;99989.50;5100270;28;20028;-54
2022/03/31 04:28:30;;;;;;;6.80;5.00;;;;;;;1.58;88.73;99977.13;5105182;28;20031;-55
2022/03/31 04:30:56;;;;;;;6.23;4.80;;;;;;;1.50;88.98;99982.16;5100623;28;20644;-55
2022/03/31 04:33:21;;;;;;;9.20;6.77;;;;;;;1.66;89.98;99986.97;5101133;28;20019;-54
2022/03/31 04:35:46;;;;;;;6.00;5.00;;;;;;;1.57;90.29;99985.94;5111140;28;20027;-55
2022/03/31 04:38:12;;;;;;;5.13;4.63;;;;;;;1.56;90.39;99988.66;5110674;28;20051;-55
2022/03/31 04:40:37;;;;;;;4.93;4.10;;;;;;;1.56;89.71;99983.44;5104154;28;20396;-55
2022/03/31 04:43:02;;;;;;;6.60;4.80;;;;;;;1.45;90.42;99989.53;5108019;28;20042;-56
2022/03/31 04:45:28;;;;;;;4.90;4.40;;;;;;;1.44;90.53;99991.31;5103977;28;20032;-55
2022/03/31 04:47:53;;;;;;;5.27;4.30;;;;;;;1.39;90.69;99987.41;5110947;28;20024;-54
2022/03/31 04:50:19;;;;;;;4.40;4.00;;;;;;;1.36;90.12;99988.50;5096714;28;20355;-53
2022/03/31 04:52:44;;;;;;;4.60;4.20;;;;;;;1.31;90.80;99995.88;5110993;28;20039;-55
2022/03/31 04:55:09;;;;;;;4.10;3.70;;;;;;;1.54;90.43;100001.03;5111897;28;20039;-55
2022/03/31 04:57:35;;;;;;;4.80;4.13;;;;;;;1.40;90.63;100002.97;5112964;28;20028;-53
2022/03/31 05:00:01;;;;;;;5.40;4.00;;;;;;;1.51;89.70;100001.28;5097158;28;20467;-56
2022/03/31 05:02:26;;;;;;;5.80;3.97;;;;;;;1.35;91.46;100002.50;5108542;28;20088;-55
2022/03/31 05:04:52;;;;;;;4.40;4.00;;;;;;;1.36;90.62;99991.09;5102138;27;20531;-55
2022/03/31 05:07:17;;;;;;;4.80;4.30;;;;;;;1.28;90.95;99998.75;5108367;28;20473;-54
2022/03/31 05:09:42;;;;;;;5.17;4.63;;;;;;;1.24;91.24;99989.47;5109676;28;20032;-53
2022/03/31 05:12:08;;;;;;;4.70;3.90;;;;;;;1.39;91.88;99990.88;5113134;28;20046;-52
2022/03/31 05:14:34;;;;;;;5.80;4.47;;;;;;;1.26;91.20;100000.63;5112606;28;20073;-52
2022/03/31 05:17:00;;;;;;;7.37;4.37;;;;;;;1.29;90.65;99995.16;5104513;28;20028;-54
2022/03/31 05:19:25;;;;;;;4.60;4.10;;;;;;;1.25;90.76;99996.34;5102272;28;20063;-53
2022/03/31 05:21:51;;;;;;;6.30;4.33;;;;;;;1.34;91.35;99987.81;5108912;28;20052;-54
2022/03/31 05:24:16;;;;;;;5.03;4.20;;;;;;;1.27;90.57;99992.66;5097203;28;20044;-55
2022/03/31 05:26:42;;;;;;;3.77;3.37;;;;;;;1.22;90.57;100001.84;5110410;28;20420;-53
2022/03/31 05:29:07;;;;;;;4.57;3.73;;;;;;;1.01;90.78;100005.16;5109327;28;20042;-51
2022/03/31 05:31:32;;;;;;;4.40;3.70;;;;;;;0.96;91.05;100007.31;5102897;28;20028;-50
2022/03/31 05:33:58;;;;;;;5.60;3.87;;;;;;;0.96;90.31;99999.47;5108599;28;20038;-54
2022/03/31 05:36:23;;;;;;;5.50;3.90;;;;;;;0.84;90.44;99983.81;5112056;28;20115;-54
2022/03/31 05:38:48;;;;;;;6.67;3.90;;;;;;;0.89;90.67;99992.13;5111435;28;20031;-54
2022/03/31 05:41:14;;;;;;;4.77;3.77;;;;;;;0.87;90.86;99999.25;5105342;28;20032;-52
2022/03/31 05:43:39;;;;;;;4.70;4.00;;;;;;;0.80;91.55;100000.69;5105893;28;20032;-53
2022/03/31 05:46:04;;;;;;;7.43;3.77;;;;;;;0.82;91.86;100001.38;5097754;28;20670;-52
2022/03/31 05:48:29;;;;;;;5.87;3.70;;;;;;;0.89;91.51;100002.56;5107450;28;20032;-58
2022/03/31 05:50:55;;;;;;;4.77;3.87;;;;;;;0.69;91.21;100011.91;5109405;28;20095;-51
2022/03/31 05:53:20;;;;;;;4.30;3.90;;;;;;;0.56;91.68;100006.81;5098182;28;20039;-51
2022/03/31 05:55:45;;;;;;;6.70;4.00;;;;;;;0.57;91.71;100003.28;5112792;28;20032;-52
2022/03/31 05:58:11;;;;;;;10.97;4.13;;;;;;;0.63;91.84;100008.03;5111963;28;20099;-57
2022/03/31 06:00:36;;;;;;;3.97;3.57;;;;;;;0.48;92.46;99998.75;5110087;28;20035;-53
2022/03/31 06:03:01;;;;;;;4.07;3.73;;;;;;;0.55;91.90;100001.72;5104011;28;20032;-55
2022/03/31 06:05:27;;;;;;;5.40;3.97;;;;;;;0.62;91.59;99995.91;5112727;28;20061;-55
2022/03/31 06:07:52;;;;;;;5.57;3.73;;;;;;;0.74;91.94;99993.31;5105660;28;20548;-54
2022/03/31 06:10:18;;;;;;;4.87;3.43;;;;;;;0.71;92.20;99993.53;5107116;28;20032;-54
2022/03/31 06:12:44;;;;;;;4.27;3.80;;;;;;;0.80;91.21;99992.84;5104323;28;20033;-56
2022/03/31 06:15:09;;;;;;;4.23;3.83;;;;;;;0.93;91.38;99993.53;5112993;28;20478;-54
2022/03/31 06:17:35;;;;;;;4.70;3.70;;;;;;;1.02;91.42;99996.38;5112599;28;20486;-56
2022/03/31 06:20:01;;;;;;;4.40;3.60;;;;;;;1.15;90.28;100001.47;5098501;28;20489;-56
2022/03/31 06:22:26;;;;;;;4.83;3.50;;;;;;;1.12;90.68;99997.31;5102279;28;20052;-55
2022/03/31 06:24:51;;;;;;;5.33;3.50;;;;;;;1.13;89.81;100004.19;5107440;28;20462;-57
2022/03/31 06:27:17;;;;;;;6.17;3.70;;;;;;;1.02;90.68;100006.81;5112264;28;20062;-55
2022/03/31 06:29:45;;;;;;;8.47;4.10;;;;;;;0.90;91.02;100004.22;5107878;28;20066;-54
2022/03/31 06:32:12;;;;;;;4.30;3.90;;;;;;;0.79;91.94;100012.06;5097849;28;20447;-54
2022/03/31 06:34:37;;;;;;;4.70;4.20;;;;;;;0.72;93.18;100009.09;5101419;28;20027;-56
2022/03/31 06:37:03;;;;;;;4.83;4.03;;;;;;;0.74;92.76;99999.34;5110870;28;20200;-56
2022/03/31 06:39:28;;;;;;;6.03;4.60;;;;;;;0.64;93.24;100009.66;5092701;28;20079;-57
2022/03/31 06:41:54;;;;;;;5.87;4.57;;;;;;;0.66;93.99;100013.00;5104519;28;20035;-55
2022/03/31 06:44:21;;;;;;;6.13;4.73;;;;;;;0.77;93.19;100019.16;5103060;28;20019;-59
2022/03/31 06:46:47;;;;;;;6.63;4.80;;;;;;;0.81;93.45;100012.78;5104266;28;20501;-61
2022/03/31 06:49:12;;;;;;;8.33;4.77;;;;;;;0.86;92.75;99999.34;5106222;28;20047;-59
2022/03/31 06:51:37;;;;;;;5.37;4.70;;;;;;;0.76;93.18;100013.13;5097290;28;20032;-59
2022/03/31 06:54:04;;;;;;;5.37;4.87;;;;;;;0.80;92.54;100013.72;5107814;28;20028;-58
2022/03/31 06:56:31;;;;;;;5.83;5.23;;;;;;;0.78;93.05;100018.22;5099353;28;20034;-57
2022/03/31 06:58:58;;;;;;;5.53;4.93;;;;;;;0.69;93.47;100011.09;5105410;28;20084;-57
2022/03/31 07:01:24;;;;;;;6.17;5.50;;;;;;;0.76;94.32;100012.28;5104728;28;20028;-56
2022/03/31 07:03:50;;;;;;;7.30;5.80;;;;;;;0.74;94.99;100014.19;5106932;28;20239;-57
2022/03/31 07:06:15;;;;;;;6.10;5.33;;;;;;;0.82;94.13;100014.44;5102805;28;20570;-56
2022/03/31 07:08:41;;;;;;;7.33;5.70;;;;;;;0.76;94.37;100012.28;5103578;28;20417;-56
2022/03/31 07:11:07;;;;;;;6.97;5.33;;;;;;;0.85;93.31;99995.94;5099320;28;20027;-57
2022/03/31 07:13:33;;;;;;;6.27;5.10;;;;;;;0.94;92.63;100010.88;5099872;28;20027;-57
2022/03/31 07:15:58;;;;;;;5.90;5.30;;;;;;;0.75;94.04;100008.03;5106262;28;20030;-56
2022/03/31 07:18:23;;;;;;;6.73;5.67;;;;;;;0.74;94.18;100001.97;5100539;28;20035;-56
2022/03/31 07:20:50;;;;;;;7.17;5.30;;;;;;;0.84;93.94;100004.69;5101794;28;20513;-56
2022/03/31 07:23:18;;;;;;;7.60;5.60;;;;;;;0.79;93.33;99991.19;5103335;28;20033;-55
2022/03/31 07:25:43;;;;;;;10.20;6.20;;;;;;;0.80;94.09;100009.31;5104731;28;20038;-56
2022/03/31 07:28:08;;;;;;;6.60;5.73;;;;;;;0.81;94.64;100004.94;5107925;28;20024;-57
2022/03/31 07:30:33;;;;;;;7.47;6.03;;;;;;;0.78;94.98;100011.22;5102886;28;20715;-58
2022/03/31 07:33:03;;;;;;;9.30;6.47;;;;;;;0.79;95.04;100005.06;5103439;28;20533;-56
2022/03/31 07:35:31;;;;;;;7.63;6.20;;;;;;;0.71;95.64;100009.19;5108052;28;20658;-56
2022/03/31 07:37:59;;;;;;;6.63;5.73;;;;;;;0.78;95.68;100010.38;5095222;28;20032;-55
2022/03/31 07:40:26;;;;;;;10.27;7.30;;;;;;;0.84;96.18;100015.13;5100604;28;20560;-58
2022/03/31 07:42:52;;;;;;;7.87;6.23;;;;;;;0.89;95.30;100002.56;5096534;28;20379;-55
2022/03/31 07:45:19;;;;;;;7.10;6.03;;;;;;;0.98;95.12;100014.06;5109978;28;20030;-57
2022/03/31 07:47:44;;;;;;;8.63;6.60;;;;;;;0.98;96.01;100010.66;5109935;28;20020;-56
2022/03/31 07:50:12;;;;;;;6.97;5.80;;;;;;;0.93;95.31;100014.44;5104799;28;20042;-57
2022/03/31 07:52:39;;;;;;;6.97;5.87;;;;;;;0.97;95.42;100008.97;5105115;28;20039;-56
2022/03/31 07:55:06;;;;;;;6.20;5.60;;;;;;;0.99;95.90;100004.47;5097429;28;20138;-56
2022/03/31 07:57:32;;;;;;;6.57;5.40;;;;;;;1.07;94.74;100010.75;5106486;28;20032;-57
2022/03/31 07:59:57;;;;;;;6.90;5.40;;;;;;;1.06;94.33;100011.72;5103014;28;20027;-58
2022/03/31 08:02:25;;;;;;;5.90;5.33;;;;;;;1.14;94.42;100010.28;5103059;28;20399;-58
2022/03/31 08:04:51;;;;;;;6.00;5.30;;;;;;;1.09;94.50;100008.03;5102420;28;20165;-57
2022/03/31 08:07:16;;;;;;;6.23;5.10;;;;;;;1.09;94.86;100008.03;5103461;28;20110;-58
2022/03/31 08:09:41;;;;;;;8.53;5.80;;;;;;;1.17;95.93;100004.78;5102137;28;20189;-54
2022/03/31 08:12:07;;;;;;;5.50;4.83;;;;;;;1.16;95.06;99998.75;5102988;28;20053;-56
2022/03/31 08:14:32;;;;;;;5.43;4.73;;;;;;;1.19;94.75;99995.06;5105833;28;20020;-56
2022/03/31 08:16:58;;;;;;;5.60;4.90;;;;;;;1.25;94.47;99997.19;5101252;28;20119;-54
2022/03/31 08:19:23;;;;;;;5.67;4.90;;;;;;;1.21;94.82;99995.78;5105455;28;20035;-56
2022/03/31 08:21:49;;;;;;;6.37;5.07;;;;;;;1.27;94.72;99989.22;5104343;28;20032;-57
2022/03/31 08:24:15;;;;;;;5.23;4.73;;;;;;;1.27;94.98;99989.22;5098449;28;20035;-57
2022/03/31 08:26:45;;;;;;;5.40;4.90;;;;;;;1.33;94.67;99983.53;5105782;28;20031;-58
2022/03/31 08:29:10;;;;;;;6.57;5.33;;;;;;;1.42;94.24;99998.47;5101591;28;20023;-55
2022/03/31 08:31:37;;;;;;;6.30;5.20;;;;;;;1.47;94.15;99991.09;5106047;28;20590;-57
2022/03/31 08:34:05;;;;;;;6.23;5.00;;;;;;;1.43;94.08;99994.88;5106505;28;20066;-57
2022/03/31 08:36:31;;;;;;;5.60;4.77;;;;;;;1.44;93.64;99996.53;5107492;28;20059;-57
2022/03/31 08:38:57;;;;;;;6.57;5.50;;;;;;;1.50;94.62;99995.22;5105863;28;20055;-57
2022/03/31 08:41:25;;;;;;;7.13;5.67;;;;;;;1.71;92.41;99997.91;5106557;27;20055;-58
2022/03/31 08:43:50;;;;;;;6.40;5.30;;;;;;;1.64;93.56;99994.13;5107649;28;20031;-59
2022/03/31 08:46:16;;;;;;;7.17;5.07;;;;;;;1.58;93.29;99999.84;5110784;28;20509;-58
2022/03/31 08:48:42;;;;;;;6.90;5.03;;;;;;;1.65;93.29;100008.00;5104520;28;20095;-56
2022/03/31 08:51:07;;;;;;;6.13;5.23;;;;;;;1.69;93.01;100005.03;5101051;28;20028;-57
2022/03/31 08:53:33;;;;;;;7.40;5.33;;;;;;;1.69;92.69;100007.66;5105281;28;20363;-57
2022/03/31 08:55:58;;;;;;;6.23;5.03;;;;;;;1.79;93.13;100009.50;5103617;28;20036;-56
2022/03/31 08:58:23;;;;;;;8.43;5.10;;;;;;;1.87;92.39;100002.69;5100637;28;20035;-60
2022/03/31 09:00:49;;;;;;;6.77;5.30;;;;;;;1.98;93.05;99996.59;5109753;28;20104;-58
2022/03/31 09:03:16;;;;;;;6.33;5.47;;;;;;;2.01;93.46;99998.13;5113770;28;20042;-54
2022/03/31 09:05:49;;;;;;;6.17;5.47;;;;;;;2.04;93.21;100012.72;5112409;28;20481;-57
2022/03/31 09:08:16;;;;;;;;;;;;;;;2.10;92.60;100007.00;5114346;28;20481;-55
2022/03/31 09:10:50;;;;;;;6.83;5.27;;;;;;;2.00;92.61;100017.38;5104745;28;19919;-57
2022/03/31 09:13:19;;;;;;;6.37;5.30;;;;;;;1.85;92.50;100014.22;5113349;28;20031;-55
2022/03/31 09:16:02;;;;;;;6.47;5.70;;;;;;;1.98;93.70;100014.88;5115493;28;20031;-56
2022/03/31 09:18:30;;;;;;;5.90;5.30;;;;;;;1.93;92.82;100005.78;5103898;28;20484;-57
2022/03/31 09:20:58;;;;;;;5.50;4.93;;;;;;;1.93;92.37;100006.59;5101678;28;20039;-58
2022/03/31 09:23:29;;;;;;;6.77;5.50;;;;;;;1.95;92.48;100004.69;5103609;28;20032;-57
2022/03/31 09:26:15;;;;;;;6.33;5.13;;;;;;;2.09;92.14;100006.19;5103062;28;20461;-56
2022/03/31 09:28:43;;;;;;;7.13;5.77;;;;;;;1.99;92.33;100010.50;5104235;28;20028;-57
2022/03/31 09:31:10;;;;;;;5.97;4.90;;;;;;;1.97;91.06;100007.19;5105260;28;20045;-57
2022/03/31 09:33:48;;;;;;;6.87;5.40;;;;;;;1.97;93.23;100018.47;5104033;28;20088;-57
2022/03/31 09:36:21;;;;;;;7.10;5.50;;;;;;;1.99;92.48;100016.56;5104909;28;20031;-57
2022/03/31 09:38:55;;;;;;;9.97;5.77;;;;;;;2.01;93.15;100027.72;5101570;28;20047;-57
2022/03/31 09:41:22;;;;;;;9.63;5.97;;;;;;;1.87;92.14;100022.78;5102116;28;20043;-57
2022/03/31 09:43:49;;;;;;;7.90;5.43;;;;;;;1.88;92.22;100014.00;5113570;28;20465;-57
2022/03/31 09:46:30;;;;;;;8.43;5.63;;;;;;;1.95;92.83;100004.69;5107372;28;20039;-55
2022/03/31 09:48:56;;;;;;;8.00;5.73;;;;;;;2.04;92.46;100012.72;5105117;28;20027;-56
2022/03/31 09:51:24;;;;;;;7.57;5.57;;;;;;;2.16;93.20;100016.94;5102729;28;20462;-57
2022/03/31 09:53:52;;;;;;;6.23;4.93;;;;;;;2.22;90.62;100021.66;5100952;28;20526;-57
2022/03/31 09:56:20;;;;;;;7.80;5.43;;;;;;;2.28;91.66;100009.88;5104382;28;20026;-56
2022/03/31 09:58:49;;;;;;;6.80;5.37;;;;;;;2.08;91.58;100017.56;5101761;28;20379;-57
2022/03/31 10:01:16;;;;;;;6.27;4.83;;;;;;;2.04;90.93;100010.94;5104782;28;20501;-54
2022/03/31 10:03:42;;;;;;;8.63;6.00;;;;;;;2.05;92.63;100010.00;5102813;28;20032;-57
2022/03/31 10:06:08;;;;;;;6.83;5.30;;;;;;;1.96;92.16;100006.34;5103999;28;20035;-57
2022/03/31 10:08:38;;;;;;;6.07;5.20;;;;;;;2.12;91.65;100005.91;5101941;28;20036;-58
2022/03/31 10:11:04;;;;;;;6.00;5.23;;;;;;;2.09;91.91;100000.94;5101763;28;20107;-57
2022/03/31 10:13:53;;;;;;;6.53;5.10;;;;;;;2.12;91.73;99999.88;5103843;28;20065;-57
2022/03/31 10:16:29;;;;;;;7.60;5.33;;;;;;;2.27;92.25;100003.81;5105276;28;20036;-55
2022/03/31 10:18:55;;;;;;;6.60;5.40;;;;;;;2.33;91.60;100002.47;5102986;28;20035;-56
2022/03/31 10:21:28;;;;;;;6.30;5.00;;;;;;;2.39;91.80;99999.34;5102913;28;20039;-56
2022/03/31 10:26:37;;;;;;;5.13;4.60;;;;;;;2.50;89.40;100003.66;5109366;28;19999;-57
2022/03/31 10:29:15;;;;;;;6.40;5.30;;;;;;;2.41;91.51;100007.03;5110054;28;20102;-59
2022/03/31 10:31:45;;;;;;;6.90;5.47;;;;;;;2.52;91.69;100009.59;5110463;28;20088;-57
2022/03/31 10:34:12;;;;;;;8.10;5.20;;;;;;;2.65;90.03;100011.16;5107698;28;20063;-57
2022/03/31 10:36:47;;;;;;;5.50;4.73;;;;;;;2.66;90.01;100007.63;5099958;28;20043;-57
2022/03/31 10:39:31;;;;;;;6.53;5.03;;;;;;;2.73;90.13;99997.44;5110965;28;20111;-57
2022/03/31 10:42:04;;;;;;;6.30;4.77;;;;;;;2.74;89.73;99999.94;5105359;28;20062;-56
2022/03/31 10:44:30;;;;;;;6.53;5.40;;;;;;;2.85;90.41;99998.19;5102135;28;20728;-57
2022/03/31 10:47:14;;;;;;;5.40;4.53;;;;;;;3.07;88.25;99995.34;5112818;28;20072;-57
2022/03/31 10:49:50;;;;;;;5.90;5.10;;;;;;;2.90;87.79;100003.84;5108312;28;20568;-56
2022/03/31 10:52:19;;;;;;;6.07;5.07;;;;;;;2.86;89.21;99997.22;5110932;28;20680;-57
2022/03/31 10:54:46;;;;;;;7.33;5.10;;;;;;;2.85;89.97;99995.56;5096890;27;20073;-56
2022/03/31 10:57:13;;;;;;;5.43;4.50;;;;;;;2.88;87.24;99985.66;5109639;28;20391;-57
2022/03/31 10:59:40;;;;;;;6.20;5.07;;;;;;;2.93;87.83;99987.88;5109448;28;20109;-56
2022/03/31 11:02:18;;;;;;;6.47;5.40;;;;;;;2.75;89.47;99980.63;5107017;28;20036;-59
2022/03/31 11:04:49;;;;;;;8.27;5.87;;;;;;;2.85;90.63;99990.34;5111183;28;20101;-58
2022/03/31 11:07:21;;;;;;;7.63;5.70;;;;;;;2.83;90.58;99993.88;5112067;28;20045;-57
2022/03/31 11:09:46;;;;;;;6.50;5.80;;;;;;;2.80;90.36;99988.94;5107793;28;20059;-56
2022/03/31 11:12:28;;;;;;;5.40;4.87;;;;;;;3.12;88.58;99991.50;5101778;28;20051;-57
2022/03/31 11:15:00;;;;;;;5.63;5.00;;;;;;;2.93;87.90;99985.25;5106770;28;20028;-57
2022/03/31 11:17:29;;;;;;;5.87;4.80;;;;;;;3.11;86.90;99990.66;5097706;28;20100;-57
2022/03/31 11:19:56;;;;;;;4.77;4.30;;;;;;;2.98;87.41;99987.47;5103790;28;20028;-54
2022/03/31 11:22:23;;;;;;;5.57;5.00;;;;;;;3.01;88.24;99985.41;5106508;28;20035;-56
2022/03/31 11:24:50;;;;;;;5.30;4.73;;;;;;;3.15;87.00;99976.34;5103417;28;20028;-57
2022/03/31 11:27:16;;;;;;;5.30;4.73;;;;;;;3.12;86.94;99973.16;5106090;28;20149;-58
2022/03/31 11:29:41;;;;;;;5.83;5.07;;;;;;;3.12;88.37;99970.56;5103489;28;20019;-56
2022/03/31 11:32:07;;;;;;;5.50;4.87;;;;;;;3.18;87.72;99975.25;5105705;28;20370;-56
2022/03/31 11:34:32;;;;;;;5.60;5.00;;;;;;;3.08;87.92;99965.59;5110212;28;20032;-57
2022/03/31 11:36:57;;;;;;;7.10;5.20;;;;;;;3.05;88.17;99965.00;5111589;28;20051;-53
2022/03/31 11:39:28;;;;;;;9.30;5.50;;;;;;;3.12;88.60;99970.56;5108906;28;20031;-54
2022/03/31 11:41:54;;;;;;;7.03;5.80;;;;;;;3.15;89.99;99965.06;5107322;28;20032;-57
2022/03/31 11:44:21;;;;;;;6.10;5.50;;;;;;;3.02;90.03;99962.66;5104674;28;20031;-56